Time;durP1;ratioP1;P1;durP2;ratioP2;P2;SDS_P1;SDS_P2;PMS_P1;PMS_P2;Temp;Humidity;BMP_temperature;BMP_pressure;BME280_temperature;BME280_humidity;BME280_pressure;Samples;Min_cycle;Max_cycle;Signal;HPM_P1;HPM_P2
2023/01/14 00:02:17;;;;;;;7.53;1.90;;;;;;;6.13;100.00;100245.00;6151461;28;20042;-85
2023/01/14 00:05:19;;;;;;;3.38;1.50;;;;;;;6.11;100.00;100240.88;6155809;28;20287;-84
2023/01/14 00:08:22;;;;;;;4.45;1.40;;;;;;;6.24;100.00;100247.69;6154934;28;20134;-84
2023/01/14 00:14:44;;;;;;;;;;;;;;;6.43;100.00;100252.47;6155837;28;20296;-84
2023/01/14 00:17:47;;;;;;;4.75;1.65;;;;;;;6.50;100.00;100242.56;6161538;28;19930;-84
2023/01/14 00:21:04;;;;;;;5.25;1.70;;;;;;;6.55;100.00;100255.94;6158302;28;20336;-85
2023/01/14 00:24:06;;;;;;;5.53;1.55;;;;;;;6.54;100.00;100262.03;6163337;28;20491;-84
2023/01/14 00:27:08;;;;;;;4.68;1.60;;;;;;;6.56;100.00;100265.34;6164926;28;20109;-84
2023/01/14 00:30:11;;;;;;;4.90;1.60;;;;;;;6.53;100.00;100269.84;6160033;28;20047;-85
2023/01/14 00:33:12;;;;;;;3.33;1.40;;;;;;;6.50;100.00;100265.72;6165405;28;20057;-85
2023/01/14 00:36:17;;;;;;;5.68;2.25;;;;;;;6.46;100.00;100272.81;6158806;28;20149;-85
2023/01/14 00:39:20;;;;;;;8.05;1.85;;;;;;;6.39;100.00;100266.44;6169815;28;20069;-85
2023/01/14 00:42:22;;;;;;;6.20;2.47;;;;;;;6.39;100.00;100268.19;6148431;28;20042;-84
2023/01/14 00:45:23;;;;;;;3.22;1.40;;;;;;;6.21;100.00;100263.31;6179501;28;20050;-85
2023/01/14 00:48:25;;;;;;;4.88;1.52;;;;;;;6.14;100.00;100266.41;6148508;28;20050;-85
2023/01/14 00:51:29;;;;;;;5.05;1.63;;;;;;;6.05;100.00;100262.66;6163843;28;20053;-84
2023/01/14 00:54:33;;;;;;;3.67;1.83;;;;;;;6.03;100.00;100269.63;6164468;28;20046;-85
2023/01/14 00:57:34;;;;;;;4.22;1.95;;;;;;;5.98;100.00;100261.41;6165956;28;20484;-84
2023/01/14 01:00:37;;;;;;;6.18;1.80;;;;;;;5.92;100.00;100290.03;6162768;28;20387;-85
2023/01/14 01:03:41;;;;;;;4.63;1.75;;;;;;;5.88;100.00;100270.59;6165610;28;20042;-84
2023/01/14 01:06:43;;;;;;;6.00;2.05;;;;;;;5.89;100.00;100273.06;6160947;28;20073;-85
2023/01/14 01:09:46;;;;;;;7.85;2.45;;;;;;;5.85;100.00;100287.03;6144479;28;20506;-84
2023/01/14 01:12:48;;;;;;;7.43;1.98;;;;;;;5.74;100.00;100292.00;6163190;28;20054;-84
2023/01/14 01:15:58;;;;;;;4.97;1.65;;;;;;;5.71;100.00;100292.19;6161749;28;20077;-84
2023/01/14 01:18:59;;;;;;;6.40;1.70;;;;;;;5.74;100.00;100290.28;6164535;28;20564;-85
2023/01/14 01:22:01;;;;;;;7.63;2.10;;;;;;;5.62;100.00;100293.59;6162611;28;20049;-84
2023/01/14 01:25:03;;;;;;;4.57;2.35;;;;;;;5.63;100.00;100302.13;6163275;28;20282;-84
2023/01/14 01:28:05;;;;;;;2.13;1.73;;;;;;;5.59;100.00;100301.50;6163108;28;20277;-84
2023/01/14 01:31:10;;;;;;;5.50;1.80;;;;;;;5.40;100.00;100305.19;6156756;28;20370;-84
2023/01/14 01:34:12;;;;;;;4.18;1.88;;;;;;;5.46;100.00;100300.59;6152216;28;20186;-84
2023/01/14 01:37:14;;;;;;;6.95;2.13;;;;;;;5.47;100.00;100305.63;6163355;28;20046;-84
2023/01/14 01:40:16;;;;;;;3.35;1.48;;;;;;;5.47;100.00;100308.22;6156988;28;20075;-84
2023/01/14 01:43:21;;;;;;;5.25;1.73;;;;;;;5.36;100.00;100315.72;6159297;28;20101;-85
2023/01/14 01:46:22;;;;;;;6.20;1.85;;;;;;;5.32;100.00;100312.53;6158831;28;20740;-84
2023/01/14 01:49:31;;;;;;;6.72;2.00;;;;;;;5.34;100.00;100323.53;6156837;28;20053;-85
2023/01/14 01:52:35;;;;;;;6.32;2.08;;;;;;;5.37;100.00;100330.22;6164269;28;20150;-84
2023/01/14 01:55:40;;;;;;;8.10;2.20;;;;;;;5.61;100.00;100343.28;6161964;28;20043;-84
2023/01/14 01:58:42;;;;;;;7.22;2.15;;;;;;;5.85;100.00;100338.38;6173687;28;20047;-84
2023/01/14 02:01:45;;;;;;;8.30;2.35;;;;;;;5.98;100.00;100343.63;6145193;28;20047;-85
2023/01/14 02:04:47;;;;;;;9.63;2.03;;;;;;;5.96;100.00;100342.88;6158648;28;20399;-84
2023/01/14 02:07:49;;;;;;;5.30;2.10;;;;;;;5.95;100.00;100348.94;6163076;28;20513;-84
2023/01/14 02:11:21;;;;;;;4.93;2.63;;;;;;;5.96;100.00;100356.56;6160140;28;20133;-85
2023/01/14 02:14:29;;;;;;;7.93;2.20;;;;;;;5.90;100.00;100361.22;6159316;28;20043;-84
2023/01/14 02:17:46;;;;;;;5.15;1.92;;;;;;;5.87;100.00;100359.69;6163274;28;20053;-84
2023/01/14 02:20:59;;;;;;;7.15;2.15;;;;;;;5.77;100.00;100356.84;6163437;28;20062;-84
2023/01/14 02:24:23;;;;;;;6.72;2.00;;;;;;;5.61;100.00;100356.97;6153484;28;20043;-84
2023/01/14 02:27:49;;;;;;;5.10;2.20;;;;;;;5.66;100.00;100354.09;6157100;28;20046;-85
2023/01/14 02:31:04;;;;;;;8.68;2.72;;;;;;;5.74;100.00;100354.47;6152888;28;20043;-84
2023/01/14 02:34:19;;;;;;;9.00;3.05;;;;;;;5.71;100.00;100364.09;6161488;28;20042;-85
2023/01/14 02:37:44;;;;;;;6.30;2.35;;;;;;;5.81;100.00;100370.31;6160308;28;20513;-84
2023/01/14 02:41:21;;;;;;;4.90;2.33;;;;;;;5.81;100.00;100368.59;6161345;28;20050;-85
2023/01/14 02:44:35;;;;;;;8.18;2.20;;;;;;;5.82;100.00;100362.53;6157566;28;20386;-84
2023/01/14 02:47:41;;;;;;;7.97;2.58;;;;;;;5.83;100.00;100366.72;6159079;28;20042;-84
2023/01/14 02:50:46;;;;;;;6.00;2.60;;;;;;;5.81;100.00;100375.44;6161818;28;20172;-84
2023/01/14 02:53:48;;;;;;;9.88;2.42;;;;;;;5.88;100.00;100356.19;6161059;28;20047;-84
2023/01/14 02:56:53;;;;;;;6.80;2.33;;;;;;;5.94;100.00;100352.44;6157934;28;20043;-84
2023/01/14 03:00:11;;;;;;;12.27;3.00;;;;;;;6.00;100.00;100363.16;6161083;28;20042;-85
2023/01/14 03:03:48;;;;;;;10.75;2.63;;;;;;;6.14;100.00;100346.88;6155902;28;20047;-84
2023/01/14 03:07:05;;;;;;;8.20;2.25;;;;;;;6.18;100.00;100342.34;6160732;28;20042;-84
2023/01/14 03:10:41;;;;;;;5.38;2.53;;;;;;;6.14;100.00;100343.50;6156831;28;20051;-84
2023/01/14 03:13:57;;;;;;;7.53;2.20;;;;;;;5.98;100.00;100339.28;6153995;28;20047;-85
2023/01/14 03:17:15;;;;;;;7.85;2.63;;;;;;;6.02;100.00;100352.78;6162146;28;20046;-84
2023/01/14 03:20:26;;;;;;;7.38;2.28;;;;;;;6.09;100.00;100345.50;6162435;28;20051;-84
2023/01/14 03:23:30;;;;;;;13.55;3.55;;;;;;;6.07;100.00;100348.19;6151092;28;20046;-84
2023/01/14 03:26:36;;;;;;;6.05;2.58;;;;;;;6.18;100.00;100353.44;6145883;28;20409;-85
2023/01/14 03:29:42;;;;;;;6.60;2.50;;;;;;;6.29;100.00;100347.66;6149757;28;20046;-85
2023/01/14 03:32:50;;;;;;;8.55;3.10;;;;;;;6.29;100.00;100339.13;6160724;28;20190;-84
2023/01/14 03:35:52;;;;;;;12.32;3.28;;;;;;;6.32;100.00;100337.16;6145472;28;20043;-84
2023/01/14 03:39:01;;;;;;;8.48;2.97;;;;;;;6.31;100.00;100344.97;6144903;28;20712;-84
2023/01/14 03:42:23;;;;;;;12.52;3.85;;;;;;;6.34;100.00;100343.03;6148364;28;20191;-84
2023/01/14 03:45:45;;;;;;;16.40;4.18;;;;;;;6.16;100.00;100341.63;6159022;28;20047;-85
2023/01/14 03:48:47;;;;;;;8.57;3.90;;;;;;;6.03;100.00;100351.84;6157336;28;20035;-84
2023/01/14 03:52:04;;;;;;;6.60;3.83;;;;;;;6.01;100.00;100359.69;6161707;28;20054;-84
2023/01/14 03:55:29;;;;;;;8.88;4.18;;;;;;;6.02;100.00;100358.75;6145692;28;20117;-85
2023/01/14 03:58:48;;;;;;;14.45;4.55;;;;;;;6.03;100.00;100360.38;6153203;28;20548;-84
2023/01/14 04:01:53;;;;;;;12.05;4.70;;;;;;;6.22;100.00;100365.19;6161372;28;20043;-84
2023/01/14 04:04:57;;;;;;;10.27;4.95;;;;;;;6.15;100.00;100365.69;6154400;28;20043;-85
2023/01/14 04:07:59;;;;;;;11.95;4.75;;;;;;;6.13;100.00;100370.09;6156863;28;20127;-85
2023/01/14 04:11:01;;;;;;;12.10;5.38;;;;;;;6.09;100.00;100361.75;6157844;28;20053;-85
2023/01/14 04:17:23;;;;;;;12.00;5.05;;;;;;;6.20;100.00;100363.66;6160797;28;20054;-85
2023/01/14 04:20:25;;;;;;;13.35;5.72;;;;;;;6.19;100.00;100362.84;6161749;28;20049;-84
2023/01/14 04:23:27;;;;;;;15.63;5.63;;;;;;;5.97;100.00;100371.06;6160590;28;20519;-84
2023/01/14 04:26:29;;;;;;;13.90;5.80;;;;;;;5.86;100.00;100373.41;6160892;28;20649;-84
2023/01/14 04:29:30;;;;;;;15.63;5.55;;;;;;;5.85;100.00;100373.53;6159965;28;20412;-84
2023/01/14 04:32:32;;;;;;;16.08;6.13;;;;;;;5.90;100.00;100376.63;6159771;28;20256;-84
2023/01/14 04:35:34;;;;;;;13.68;5.35;;;;;;;5.87;100.00;100382.78;6161239;28;20043;-84
2023/01/14 04:38:36;;;;;;;13.55;5.50;;;;;;;5.83;100.00;100381.31;6152593;28;20050;-84
2023/01/14 04:45:00;;;;;;;14.68;5.90;;;;;;;5.97;100.00;100371.06;6161067;28;20074;-84
2023/01/14 04:48:03;;;;;;;18.42;6.00;;;;;;;6.07;100.00;100363.59;6154571;28;20047;-84
2023/01/14 04:51:05;;;;;;;14.15;5.40;;;;;;;6.09;100.00;100353.22;6159503;28;20535;-84
2023/01/14 04:54:07;;;;;;;12.20;5.57;;;;;;;6.04;100.00;100366.38;6161209;28;20624;-84
2023/01/14 04:57:08;;;;;;;21.40;5.63;;;;;;;6.11;100.00;100372.78;6160218;28;20284;-84
2023/01/14 05:00:11;;;;;;;11.68;4.45;;;;;;;6.06;100.00;100367.06;6160451;28;20054;-84
2023/01/14 05:03:15;;;;;;;14.45;5.25;;;;;;;6.10;100.00;100365.97;6159664;28;20457;-84
2023/01/14 05:06:16;;;;;;;15.15;4.72;;;;;;;6.09;100.00;100364.34;6158055;28;20047;-84
2023/01/14 05:09:18;;;;;;;15.93;4.43;;;;;;;5.84;100.00;100365.00;6151332;28;20502;-84
2023/01/14 05:12:19;;;;;;;16.88;5.00;;;;;;;5.68;100.00;100365.09;6163086;28;20047;-85
2023/01/14 05:15:26;;;;;;;11.00;4.10;;;;;;;5.59;100.00;100363.13;6163208;28;20039;-84
2023/01/14 05:18:28;;;;;;;12.88;4.53;;;;;;;5.55;100.00;100359.09;6158823;28;20436;-84
2023/01/14 05:21:29;;;;;;;15.80;5.13;;;;;;;5.49;100.00;100357.72;6164943;28;20049;-85
2023/01/14 05:24:31;;;;;;;20.42;4.60;;;;;;;5.46;100.00;100364.75;6147224;28;20046;-84
2023/01/14 05:27:34;;;;;;;15.13;4.20;;;;;;;5.45;100.00;100363.13;6164310;28;20042;-84
2023/01/14 05:30:35;;;;;;;16.35;4.10;;;;;;;5.40;100.00;100353.94;6163894;28;20046;-84
2023/01/14 05:33:37;;;;;;;10.18;3.88;;;;;;;5.32;100.00;100343.31;6163030;28;20492;-85
2023/01/14 05:36:39;;;;;;;18.75;4.60;;;;;;;5.24;100.00;100349.81;6164754;28;20042;-84
2023/01/14 05:39:40;;;;;;;16.52;4.00;;;;;;;5.01;100.00;100351.19;6164943;28;20412;-84
2023/01/14 05:46:09;;;;;;;10.90;4.30;;;;;;;5.16;100.00;100358.78;6163207;28;20596;-84
2023/01/14 05:49:11;;;;;;;15.48;3.97;;;;;;;5.36;100.00;100355.03;6164035;28;20057;-84
2023/01/14 05:52:13;;;;;;;15.50;3.88;;;;;;;5.37;100.00;100346.44;6163032;28;20169;-84
2023/01/14 05:55:14;;;;;;;12.70;4.35;;;;;;;5.32;100.00;100340.75;6153504;28;20086;-85
2023/01/14 05:58:17;;;;;;;15.82;3.67;;;;;;;5.26;100.00;100337.72;6160706;28;20408;-84
2023/01/14 06:08:01;;;;;;;14.85;4.13;;;;;;;5.30;100.00;100337.47;6162041;28;20141;-84
2023/01/14 06:11:03;;;;;;;18.83;4.22;;;;;;;5.44;100.00;100334.06;6162417;28;20057;-84
2023/01/14 06:14:05;;;;;;;16.48;4.22;;;;;;;5.49;100.00;100320.94;6152048;28;20102;-84
2023/01/14 06:17:09;;;;;;;15.77;4.22;;;;;;;5.55;100.00;100318.00;6151904;28;20544;-85
2023/01/14 06:20:11;;;;;;;12.13;4.10;;;;;;;5.64;100.00;100311.47;6163292;28;20125;-85
2023/01/14 06:23:13;;;;;;;9.75;3.35;;;;;;;5.77;100.00;100314.94;6162573;28;20134;-84
2023/01/14 06:26:18;;;;;;;11.57;3.85;;;;;;;5.78;100.00;100303.72;6160041;28;20055;-84
2023/01/14 06:29:19;;;;;;;12.43;3.50;;;;;;;5.90;100.00;100297.00;6165973;28;20221;-85
2023/01/14 06:32:21;;;;;;;14.70;3.40;;;;;;;5.91;100.00;100290.94;6164543;28;20074;-85
2023/01/14 06:35:26;;;;;;;14.43;3.55;;;;;;;5.85;100.00;100281.88;6165802;28;20043;-84
2023/01/14 06:38:28;;;;;;;15.43;3.38;;;;;;;5.88;100.00;100284.25;6152275;28;20055;-84
2023/01/14 06:41:29;;;;;;;11.77;3.25;;;;;;;5.82;100.00;100284.66;6156805;28;20548;-85
2023/01/14 06:44:31;;;;;;;19.17;4.47;;;;;;;5.86;100.00;100282.69;6156764;28;20477;-85
2023/01/14 06:47:33;;;;;;;17.63;3.85;;;;;;;5.69;100.00;100271.75;6154616;28;20508;-85
2023/01/14 06:50:35;;;;;;;8.40;2.60;;;;;;;5.59;100.00;100268.13;6149083;28;20039;-85
2023/01/14 06:53:37;;;;;;;7.95;2.50;;;;;;;5.47;100.00;100276.59;6147279;28;20050;-85
2023/01/14 06:56:39;;;;;;;19.73;3.65;;;;;;;5.34;100.00;100284.19;6166255;28;20042;-85
2023/01/14 06:59:40;;;;;;;10.02;3.63;;;;;;;5.24;100.00;100281.38;6145939;28;20043;-85
2023/01/14 07:02:42;;;;;;;14.95;3.20;;;;;;;5.28;100.00;100282.81;6150494;28;20094;-84
2023/01/14 07:05:44;;;;;;;14.55;3.20;;;;;;;5.28;100.00;100282.81;6150517;28;20039;-85
2023/01/14 07:08:46;;;;;;;17.30;3.20;;;;;;;5.37;100.00;100279.72;6154159;28;20049;-85
2023/01/14 07:11:48;;;;;;;9.15;2.97;;;;;;;5.39;100.00;100275.31;6150583;28;20109;-85
2023/01/14 07:14:49;;;;;;;16.63;2.95;;;;;;;5.38;100.00;100267.69;6144250;28;20768;-85
2023/01/14 07:17:51;;;;;;;11.50;2.80;;;;;;;5.29;100.00;100268.25;6148847;28;20042;-85
2023/01/14 07:20:56;;;;;;;15.60;3.15;;;;;;;5.13;100.00;100265.81;6148429;28;20039;-85
2023/01/14 07:23:57;;;;;;;16.02;3.72;;;;;;;5.03;100.00;100264.72;6147402;28;20034;-85
2023/01/14 07:26:59;;;;;;;15.80;3.10;;;;;;;4.95;100.00;100263.44;6152164;28;20057;-85
2023/01/14 07:30:03;;;;;;;11.90;3.08;;;;;;;4.93;100.00;100267.00;6147597;28;20057;-85
2023/01/14 07:33:05;;;;;;;17.55;3.10;;;;;;;4.97;100.00;100259.03;6147133;28;20076;-85
2023/01/14 07:36:07;;;;;;;9.05;2.50;;;;;;;4.99;100.00;100246.09;6150115;28;20556;-85
2023/01/14 07:39:09;;;;;;;18.23;3.92;;;;;;;4.99;100.00;100240.97;6149887;28;20042;-85
2023/01/14 07:42:11;;;;;;;9.77;2.55;;;;;;;4.94;100.00;100232.72;6148893;28;20193;-85
2023/01/14 07:45:13;;;;;;;15.95;2.75;;;;;;;4.91;100.00;100226.03;6148549;28;20078;-84
2023/01/14 07:48:14;;;;;;;15.48;3.00;;;;;;;4.88;100.00;100218.53;6149496;28;20040;-85
2023/01/14 07:51:20;;;;;;;14.32;3.70;;;;;;;4.92;100.00;100217.44;6143633;28;20133;-85
2023/01/14 07:54:22;;;;;;;11.02;2.90;;;;;;;4.93;100.00;100206.25;6171069;28;20043;-84
2023/01/14 07:57:24;;;;;;;11.07;2.50;;;;;;;5.01;100.00;100208.38;6147618;28;20047;-85
2023/01/14 08:00:26;;;;;;;9.07;2.45;;;;;;;5.12;100.00;100212.84;6145148;28;20079;-85
2023/01/14 08:03:27;;;;;;;14.73;2.22;;;;;;;5.20;100.00;100197.81;6149253;28;20043;-85
2023/01/14 08:06:30;;;;;;;12.95;2.42;;;;;;;5.25;100.00;100190.66;6144701;28;20043;-85
2023/01/14 08:09:32;;;;;;;15.73;2.50;;;;;;;5.29;100.00;100196.41;6147831;28;20393;-85
2023/01/14 08:12:34;;;;;;;13.65;2.60;;;;;;;5.32;100.00;100188.53;6151503;28;20046;-85
2023/01/14 08:15:36;;;;;;;14.98;2.50;;;;;;;5.37;100.00;100189.88;6150131;28;20279;-84
2023/01/14 08:18:38;;;;;;;9.60;2.05;;;;;;;5.44;100.00;100181.78;6150436;28;21205;-85
2023/01/14 08:21:39;;;;;;;11.43;2.45;;;;;;;5.53;100.00;100183.78;6150213;28;20039;-85
2023/01/14 08:24:41;;;;;;;10.10;2.13;;;;;;;5.56;100.00;100181.81;6151789;28;20043;-85
2023/01/14 08:27:43;;;;;;;13.57;2.40;;;;;;;5.63;100.00;100187.41;6144556;28;20078;-85
2023/01/14 08:30:44;;;;;;;13.32;2.35;;;;;;;5.64;100.00;100186.50;6147992;28;20494;-85
2023/01/14 08:33:46;;;;;;;7.88;2.03;;;;;;;5.69;100.00;100170.78;6148570;28;20043;-85
2023/01/14 08:36:48;;;;;;;6.82;2.28;;;;;;;5.73;100.00;100172.22;6144704;28;20046;-85
2023/01/14 08:39:50;;;;;;;9.57;2.05;;;;;;;5.87;100.00;100161.06;6149922;28;20039;-85
2023/01/14 08:42:53;;;;;;;7.07;1.67;;;;;;;5.95;100.00;100151.16;6142462;28;20647;-85
2023/01/14 08:45:55;;;;;;;7.85;2.13;;;;;;;6.02;100.00;100149.81;6146955;28;20050;-85
2023/01/14 08:48:57;;;;;;;9.38;1.92;;;;;;;6.07;100.00;100142.63;6148879;28;20162;-84
2023/01/14 08:51:59;;;;;;;9.35;1.98;;;;;;;6.13;100.00;100136.25;6160195;28;20043;-84
2023/01/14 08:55:01;;;;;;;8.40;1.80;;;;;;;6.14;100.00;100120.75;6159921;28;20312;-84
2023/01/14 08:58:06;;;;;;;12.30;2.08;;;;;;;6.16;100.00;100121.47;6155253;28;20055;-84
2023/01/14 09:01:09;;;;;;;7.32;1.42;;;;;;;6.20;100.00;100117.75;6150170;28;20173;-85
2023/01/14 09:04:11;;;;;;;5.80;1.60;;;;;;;6.28;100.00;100113.84;6149440;28;20051;-85
2023/01/14 09:17:20;;;;;;;10.38;1.50;;;;;;;6.47;100.00;100073.09;6155403;28;20595;-84
2023/01/14 09:20:29;;;;;;;10.48;2.47;;;;;;;6.52;100.00;100075.34;6157300;28;20053;-84
2023/01/14 09:23:30;;;;;;;11.77;2.47;;;;;;;6.55;100.00;100070.00;6157663;28;20049;-85
2023/01/14 09:26:32;;;;;;;6.43;1.63;;;;;;;6.58;100.00;100062.88;6149770;28;20050;-85
2023/01/14 09:29:34;;;;;;;11.60;1.98;;;;;;;6.59;100.00;100063.72;6159199;28;20053;-85
2023/01/14 09:32:40;;;;;;;12.35;1.95;;;;;;;6.67;100.00;100064.00;6155972;28;20034;-85
2023/01/14 09:35:42;;;;;;;8.15;1.60;;;;;;;6.75;100.00;100055.75;6157573;28;20265;-85
2023/01/14 09:38:47;;;;;;;7.45;1.83;;;;;;;6.75;100.00;100060.88;6156388;28;20492;-85
2023/01/14 09:41:58;;;;;;;15.40;2.17;;;;;;;6.75;100.00;100053.97;6157797;28;20035;-85
2023/01/14 09:45:15;;;;;;;11.65;1.88;;;;;;;6.79;100.00;100046.88;6151742;28;20071;-85
2023/01/14 09:48:21;;;;;;;6.28;1.65;;;;;;;6.82;100.00;100037.19;6149380;28;20109;-85
2023/01/14 09:51:49;;;;;;;9.45;1.67;;;;;;;6.88;100.00;100031.63;6143175;28;20042;-85
2023/01/14 09:55:14;;;;;;;6.93;2.08;;;;;;;6.85;100.00;100031.81;6164576;28;20125;-85
2023/01/14 09:58:37;;;;;;;7.30;1.88;;;;;;;6.80;100.00;100026.19;6144685;28;20043;-85
2023/01/14 10:02:17;;;;;;;7.22;1.98;;;;;;;6.82;100.00;100002.94;6149724;28;20042;-85
2023/01/14 10:05:30;;;;;;;10.23;1.57;;;;;;;6.77;100.00;99990.41;6151119;28;20050;-85
2023/01/14 10:08:40;;;;;;;9.75;2.20;;;;;;;6.73;100.00;99986.41;6142626;28;20435;-85
2023/01/14 10:11:45;;;;;;;32.63;2.75;;;;;;;6.64;100.00;99971.63;6150567;28;20463;-85
2023/01/14 10:15:06;;;;;;;7.75;1.90;;;;;;;6.51;100.00;99969.13;6144995;28;20986;-85
2023/01/14 10:18:31;;;;;;;9.98;1.83;;;;;;;6.40;100.00;99956.19;6147254;28;20043;-85
2023/01/14 10:22:03;;;;;;;11.70;2.05;;;;;;;6.33;100.00;99952.41;6143874;28;20049;-84
2023/01/14 10:25:14;;;;;;;9.85;1.58;;;;;;;6.29;100.00;99949.25;6141092;28;20058;-85
2023/01/14 10:28:22;;;;;;;9.75;2.15;;;;;;;6.31;100.00;99937.13;6146254;28;20603;-85
2023/01/14 10:31:29;;;;;;;9.55;1.67;;;;;;;6.37;100.00;99933.28;6149365;28;20061;-85
2023/01/14 10:34:41;;;;;;;9.13;1.88;;;;;;;6.42;100.00;99920.94;6144002;28;20198;-85
2023/01/14 10:37:43;;;;;;;9.30;2.10;;;;;;;6.43;100.00;99917.41;6145523;28;20709;-84
2023/01/14 10:40:47;;;;;;;6.03;1.80;;;;;;;6.41;100.00;99916.69;6145856;28;20038;-84
2023/01/14 10:43:50;;;;;;;9.05;1.77;;;;;;;6.35;100.00;99899.97;6146014;28;20106;-84
2023/01/14 10:46:56;;;;;;;4.10;1.65;;;;;;;6.20;100.00;99907.03;6156991;28;20051;-84
2023/01/14 10:50:06;;;;;;;9.57;1.77;;;;;;;6.13;100.00;99897.28;6151275;28;20375;-85
2023/01/14 10:53:24;;;;;;;6.43;1.63;;;;;;;6.06;100.00;99894.31;6147869;28;20072;-85
2023/01/14 10:56:27;;;;;;;11.18;2.47;;;;;;;6.01;100.00;99888.69;6143232;28;20065;-85
2023/01/14 10:59:54;;;;;;;6.38;1.83;;;;;;;6.02;100.00;99872.34;6150410;28;20153;-85
2023/01/14 11:02:57;;;;;;;7.40;2.00;;;;;;;5.92;100.00;99867.00;6144730;28;20081;-85
2023/01/14 11:06:17;;;;;;;6.97;1.67;;;;;;;5.94;100.00;99869.53;6147244;28;20058;-85
2023/01/14 11:09:27;;;;;;;5.00;1.58;;;;;;;5.98;100.00;99868.34;6148449;28;20493;-85
2023/01/14 11:12:31;;;;;;;;;;;;;;;5.97;100.00;99864.16;6160675;28;20377;-85
2023/01/14 11:15:34;;;;;;;5.72;1.80;;;;;;;5.97;100.00;99851.31;6147277;28;20312;-84
2023/01/14 11:18:36;;;;;;;5.07;1.90;;;;;;;5.99;100.00;99852.03;6147707;28;21312;-85
2023/01/14 11:21:42;;;;;;;4.35;1.40;;;;;;;5.92;100.00;99855.94;6145517;28;20538;-85
2023/01/14 11:24:51;;;;;;;5.78;1.55;;;;;;;5.91;100.00;99847.38;6160954;28;20104;-85
2023/01/14 11:27:54;;;;;;;9.82;1.50;;;;;;;5.88;100.00;99826.25;6149419;28;20250;-85
2023/01/14 11:30:57;;;;;;;7.95;1.95;;;;;;;5.87;100.00;99804.06;6147186;28;20294;-85
2023/01/14 11:33:59;;;;;;;5.82;1.70;;;;;;;5.83;100.00;99806.81;6147807;28;20050;-86
2023/01/14 11:37:03;;;;;;;8.80;2.00;;;;;;;5.80;100.00;99789.06;6151863;28;20046;-86
2023/01/14 11:40:06;;;;;;;6.18;1.55;;;;;;;5.77;100.00;99771.31;6146208;28;20159;-86
2023/01/14 11:43:10;;;;;;;8.23;1.92;;;;;;;5.80;100.00;99754.88;6143484;28;20090;-86
2023/01/14 11:46:13;;;;;;;5.97;2.10;;;;;;;5.82;100.00;99748.69;6143840;28;20436;-86
2023/01/14 11:49:20;;;;;;;6.97;1.73;;;;;;;5.90;100.00;99737.06;6145025;28;20043;-87
2023/01/14 11:52:21;;;;;;;7.13;1.80;;;;;;;5.86;100.00;99723.59;6148870;28;20303;-87
2023/01/14 11:55:27;;;;;;;6.65;1.85;;;;;;;5.86;100.00;99723.59;6145262;28;20134;-86
2023/01/14 11:58:29;;;;;;;4.35;1.98;;;;;;;5.89;100.00;99708.00;6150646;28;20134;-87
2023/01/14 12:01:43;;;;;;;9.85;2.38;;;;;;;6.01;100.00;99694.28;6165100;28;20057;-87
2023/01/14 12:05:10;;;;;;;7.18;2.35;;;;;;;6.00;100.00;99687.50;6166722;28;20050;-87
2023/01/14 12:08:17;;;;;;;8.30;2.45;;;;;;;5.98;100.00;99666.25;6151970;28;20058;-87
2023/01/14 12:11:23;;;;;;;12.63;3.58;;;;;;;5.97;100.00;99653.53;6153440;28;20043;-87
2023/01/14 12:17:58;;;;;;;9.38;2.88;;;;;;;6.01;100.00;99622.38;6155282;28;20039;-87
2023/01/14 12:21:02;;;;;;;8.25;2.50;;;;;;;5.99;100.00;99601.09;6158867;28;20043;-87
2023/01/14 12:24:13;;;;;;;9.55;2.35;;;;;;;5.99;100.00;99601.09;6140459;28;20042;-87
2023/01/14 12:27:42;;;;;;;6.38;2.42;;;;;;;5.99;100.00;99597.72;6156025;28;20055;-87
2023/01/14 12:31:08;;;;;;;5.88;1.90;;;;;;;5.99;100.00;99590.03;6150991;28;20039;-87
2023/01/14 12:34:46;;;;;;;5.45;2.25;;;;;;;6.03;100.00;99579.38;6147171;28;20050;-87
2023/01/14 12:37:56;;;;;;;12.43;2.10;;;;;;;6.06;100.00;99573.19;6155902;28;20042;-87
2023/01/14 12:47:55;;;;;;;11.40;2.00;;;;;;;6.12;100.00;99538.53;6148406;28;20508;-88
2023/01/14 12:51:05;;;;;;;7.97;1.65;;;;;;;6.14;100.00;99527.19;6151097;28;20043;-88
2023/01/14 12:54:19;;;;;;;6.23;1.73;;;;;;;6.15;100.00;99523.69;6148942;28;20099;-88
2023/01/14 12:57:23;;;;;;;6.50;1.95;;;;;;;6.21;100.00;99512.09;6166525;28;20302;-88
2023/01/14 13:00:29;;;;;;;6.47;1.85;;;;;;;6.18;100.00;99513.16;6156844;28;20619;-88
2023/01/14 13:03:55;;;;;;;6.05;1.88;;;;;;;6.19;100.00;99494.25;6152858;28;20035;-88
2023/01/14 13:07:04;;;;;;;4.70;1.48;;;;;;;6.22;100.00;99478.59;6141661;28;20141;-88
2023/01/14 13:10:08;;;;;;;6.15;1.65;;;;;;;6.25;100.00;99468.06;6157885;28;20419;-88
2023/01/14 13:13:24;;;;;;;3.83;1.42;;;;;;;6.27;100.00;99457.69;6154761;28;20039;-88
2023/01/14 13:16:41;;;;;;;2.85;1.50;;;;;;;6.27;100.00;99459.44;6150740;28;20047;-88
2023/01/14 13:19:53;;;;;;;5.68;1.80;;;;;;;6.29;100.00;99447.28;6154249;28;20042;-88
2023/01/14 13:23:08;;;;;;;3.35;1.75;;;;;;;6.23;100.00;99446.00;6146436;28;20046;-88
2023/01/14 13:26:40;;;;;;;2.00;1.17;;;;;;;6.26;100.00;99448.34;6149450;28;20058;-88
2023/01/14 13:29:42;;;;;;;3.20;1.30;;;;;;;6.22;100.00;99428.97;6147379;28;20081;-88
2023/01/14 13:33:15;;;;;;;5.45;1.20;;;;;;;6.29;100.00;99424.97;6149066;28;20051;-89
2023/01/14 13:36:18;;;;;;;2.72;1.20;;;;;;;6.31;100.00;99409.41;6143775;28;20178;-87
2023/01/14 13:39:21;;;;;;;3.45;1.13;;;;;;;6.31;100.00;99409.41;6151786;28;20423;-87
2023/01/14 13:42:29;;;;;;;3.40;1.45;;;;;;;6.30;100.00;99387.25;6156967;28;20065;-87
2023/01/14 13:45:34;;;;;;;1.30;0.90;;;;;;;6.33;100.00;99372.38;6157674;28;20322;-87
2023/01/14 13:48:52;;;;;;;3.95;1.00;;;;;;;6.32;100.00;99364.81;6155941;28;20455;-87
2023/01/14 13:52:00;;;;;;;6.72;1.65;;;;;;;6.36;100.00;99364.44;6149867;28;20089;-87
2023/01/14 13:55:12;;;;;;;3.95;1.20;;;;;;;6.32;100.00;99349.38;6143218;28;20667;-88
2023/01/14 13:58:26;;;;;;;3.15;0.93;;;;;;;6.35;100.00;99341.44;6144131;28;20505;-88
2023/01/14 14:01:34;;;;;;;1.05;0.80;;;;;;;6.39;100.00;99329.97;6143262;28;20047;-88
2023/01/14 14:04:53;;;;;;;1.38;0.93;;;;;;;6.35;100.00;99313.16;6147034;28;20102;-88
2023/01/14 14:08:01;;;;;;;1.10;0.80;;;;;;;6.33;100.00;99299.63;6145202;28;20047;-89
2023/01/14 14:11:09;;;;;;;0.93;0.70;;;;;;;6.34;100.00;99284.06;6162008;28;20181;-88
2023/01/14 14:14:19;;;;;;;1.63;0.80;;;;;;;6.35;100.00;99285.69;6150127;28;20042;-88
2023/01/14 14:17:31;;;;;;;6.27;1.13;;;;;;;6.36;100.00;99274.50;6140404;28;20382;-89
2023/01/14 14:20:43;;;;;;;1.73;1.00;;;;;;;6.37;100.00;99283.81;6141449;28;20279;-88
2023/01/14 14:23:56;;;;;;;1.98;0.98;;;;;;;6.34;100.00;99268.66;6143737;28;20508;-88
2023/01/14 14:27:03;;;;;;;2.95;0.98;;;;;;;6.40;100.00;99262.19;6142184;28;20070;-89
2023/01/14 14:30:15;;;;;;;1.98;0.95;;;;;;;6.45;100.00;99242.06;6144147;28;20036;-88
2023/01/14 14:33:42;;;;;;;2.35;0.98;;;;;;;6.37;100.00;99239.31;6143848;28;20038;-88
2023/01/14 14:36:52;;;;;;;2.20;0.88;;;;;;;6.41;100.00;99240.69;6143552;28;20043;-88
2023/01/14 14:39:55;;;;;;;1.95;0.90;;;;;;;6.38;100.00;99221.19;6143756;28;20040;-88
2023/01/14 14:42:58;;;;;;;2.35;0.90;;;;;;;6.42;100.00;99224.34;6154051;28;20504;-88
2023/01/14 14:46:05;;;;;;;1.83;1.20;;;;;;;6.40;100.00;99228.78;6153991;28;20515;-88
2023/01/14 14:49:16;;;;;;;1.00;0.90;;;;;;;6.42;100.00;99202.00;6148697;28;20544;-88
2023/01/14 14:52:19;;;;;;;0.88;0.80;;;;;;;6.44;100.00;99197.56;6152144;28;20042;-88
2023/01/14 14:55:21;;;;;;;1.45;0.80;;;;;;;6.47;100.00;99183.63;6154028;28;20494;-88
2023/01/14 14:58:23;;;;;;;1.85;0.55;;;;;;;6.49;100.00;99186.91;6151098;28;20043;-88
2023/01/14 15:01:35;;;;;;;1.67;0.90;;;;;;;6.44;100.00;99176.19;6156520;28;20047;-88
2023/01/14 15:04:38;;;;;;;1.88;0.88;;;;;;;6.44;100.00;99150.50;6140586;28;20053;-88
2023/01/14 15:07:40;;;;;;;1.83;0.90;;;;;;;6.44;100.00;99166.72;6153397;28;20558;-88
2023/01/14 15:10:48;;;;;;;3.22;0.85;;;;;;;6.46;100.00;99148.59;6155752;28;20137;-88
2023/01/14 15:13:50;;;;;;;1.30;1.00;;;;;;;6.49;100.00;99157.81;6152076;28;20058;-88